sensor_id;sensor_type;location;lat;lon;timestamp;P1;durP1;ratioP1;P2;durP2;ratioP2
16512;SDS011;8369;48.030;11.598;2023-05-24T00:00:14;4.50;;;3.77;;
16512;SDS011;8369;48.030;11.598;2023-05-24T00:02:42;4.97;;;3.70;;
16512;SDS011;8369;48.030;11.598;2023-05-24T00:05:08;4.17;;;3.60;;
16512;SDS011;8369;48.030;11.598;2023-05-24T00:07:37;4.27;;;3.50;;
16512;SDS011;8369;48.030;11.598;2023-05-24T00:10:04;3.53;;;3.10;;
16512;SDS011;8369;48.030;11.598;2023-05-24T00:12:31;5.80;;;3.83;;
16512;SDS011;8369;48.030;11.598;2023-05-24T00:14:58;5.37;;;3.80;;
16512;SDS011;8369;48.030;11.598;2023-05-24T00:17:23;4.20;;;3.77;;
16512;SDS011;8369;48.030;11.598;2023-05-24T00:19:50;5.37;;;3.23;;
16512;SDS011;8369;48.030;11.598;2023-05-24T00:22:23;3.63;;;3.27;;
16512;SDS011;8369;48.030;11.598;2023-05-24T00:24:49;3.67;;;3.37;;
16512;SDS011;8369;48.030;11.598;2023-05-24T00:27:15;5.50;;;4.30;;
16512;SDS011;8369;48.030;11.598;2023-05-24T00:29:41;3.90;;;3.40;;
16512;SDS011;8369;48.030;11.598;2023-05-24T00:32:07;6.10;;;4.00;;
16512;SDS011;8369;48.030;11.598;2023-05-24T00:34:33;5.50;;;3.10;;
16512;SDS011;8369;48.030;11.598;2023-05-24T00:36:59;4.07;;;3.30;;
16512;SDS011;8369;48.030;11.598;2023-05-24T00:39:25;8.50;;;3.27;;
16512;SDS011;8369;48.030;11.598;2023-05-24T00:41:51;4.57;;;3.40;;
16512;SDS011;8369;48.030;11.598;2023-05-24T00:44:17;3.97;;;3.43;;
16512;SDS011;8369;48.030;11.598;2023-05-24T00:46:43;3.80;;;3.40;;
16512;SDS011;8369;48.030;11.598;2023-05-24T00:49:09;3.13;;;2.83;;
16512;SDS011;8369;48.030;11.598;2023-05-24T00:51:35;6.50;;;3.37;;
16512;SDS011;8369;48.030;11.598;2023-05-24T00:54:02;5.57;;;3.10;;
16512;SDS011;8369;48.030;11.598;2023-05-24T00:56:29;3.30;;;3.00;;
16512;SDS011;8369;48.030;11.598;2023-05-24T00:58:55;3.13;;;2.83;;
16512;SDS011;8369;48.030;11.598;2023-05-24T01:01:22;3.77;;;3.07;;
16512;SDS011;8369;48.030;11.598;2023-05-24T01:03:55;3.50;;;3.00;;
16512;SDS011;8369;48.030;11.598;2023-05-24T01:06:21;3.80;;;3.30;;
16512;SDS011;8369;48.030;11.598;2023-05-24T01:11:24;3.50;;;3.20;;
16512;SDS011;8369;48.030;11.598;2023-05-24T01:14:17;4.27;;;3.53;;
16512;SDS011;8369;48.030;11.598;2023-05-24T01:17:08;4.23;;;3.30;;
16512;SDS011;8369;48.030;11.598;2023-05-24T01:19:42;4.00;;;3.60;;
16512;SDS011;8369;48.030;11.598;2023-05-24T01:22:37;3.63;;;3.10;;
16512;SDS011;8369;48.030;11.598;2023-05-24T01:25:11;5.10;;;3.23;;
16512;SDS011;8369;48.030;11.598;2023-05-24T01:27:43;3.87;;;3.50;;
16512;SDS011;8369;48.030;11.598;2023-05-24T01:30:11;4.07;;;3.27;;
16512;SDS011;8369;48.030;11.598;2023-05-24T01:32:38;2.97;;;2.67;;
16512;SDS011;8369;48.030;11.598;2023-05-24T01:35:04;3.60;;;3.10;;
16512;SDS011;8369;48.030;11.598;2023-05-24T01:37:30;3.70;;;3.27;;
16512;SDS011;8369;48.030;11.598;2023-05-24T01:39:56;3.63;;;3.07;;
16512;SDS011;8369;48.030;11.598;2023-05-24T01:42:36;5.43;;;3.47;;
16512;SDS011;8369;48.030;11.598;2023-05-24T01:45:22;3.43;;;3.07;;
16512;SDS011;8369;48.030;11.598;2023-05-24T01:48:15;4.10;;;3.70;;
16512;SDS011;8369;48.030;11.598;2023-05-24T01:50:51;4.80;;;3.60;;
16512;SDS011;8369;48.030;11.598;2023-05-24T01:53:23;4.10;;;3.57;;
16512;SDS011;8369;48.030;11.598;2023-05-24T01:55:52;5.53;;;3.87;;
16512;SDS011;8369;48.030;11.598;2023-05-24T01:58:21;3.80;;;3.43;;
16512;SDS011;8369;48.030;11.598;2023-05-24T02:00:50;3.97;;;3.50;;
16512;SDS011;8369;48.030;11.598;2023-05-24T02:03:17;6.37;;;4.30;;
16512;SDS011;8369;48.030;11.598;2023-05-24T02:05:44;5.93;;;3.83;;
16512;SDS011;8369;48.030;11.598;2023-05-24T02:08:10;4.60;;;4.20;;
16512;SDS011;8369;48.030;11.598;2023-05-24T02:10:37;5.33;;;3.87;;
16512;SDS011;8369;48.030;11.598;2023-05-24T02:13:05;5.70;;;3.87;;
16512;SDS011;8369;48.030;11.598;2023-05-24T02:15:32;4.37;;;3.97;;
16512;SDS011;8369;48.030;11.598;2023-05-24T02:18:00;4.53;;;3.93;;
16512;SDS011;8369;48.030;11.598;2023-05-24T02:20:29;5.67;;;3.80;;
16512;SDS011;8369;48.030;11.598;2023-05-24T02:22:55;4.20;;;3.80;;
16512;SDS011;8369;48.030;11.598;2023-05-24T02:25:22;4.93;;;4.17;;
16512;SDS011;8369;48.030;11.598;2023-05-24T02:27:48;4.73;;;4.23;;
16512;SDS011;8369;48.030;11.598;2023-05-24T02:30:14;7.37;;;4.30;;
16512;SDS011;8369;48.030;11.598;2023-05-24T02:32:40;4.57;;;3.83;;
16512;SDS011;8369;48.030;11.598;2023-05-24T02:35:06;5.47;;;4.23;;
16512;SDS011;8369;48.030;11.598;2023-05-24T02:37:32;5.83;;;4.17;;
16512;SDS011;8369;48.030;11.598;2023-05-24T02:39:58;6.10;;;4.43;;
16512;SDS011;8369;48.030;11.598;2023-05-24T02:42:24;4.83;;;4.30;;
16512;SDS011;8369;48.030;11.598;2023-05-24T02:44:50;5.83;;;4.20;;
16512;SDS011;8369;48.030;11.598;2023-05-24T02:47:17;4.57;;;3.93;;
16512;SDS011;8369;48.030;11.598;2023-05-24T02:49:43;5.17;;;4.40;;
16512;SDS011;8369;48.030;11.598;2023-05-24T02:52:09;6.53;;;4.23;;
16512;SDS011;8369;48.030;11.598;2023-05-24T02:54:35;6.20;;;4.17;;
16512;SDS011;8369;48.030;11.598;2023-05-24T02:57:01;5.13;;;4.63;;
16512;SDS011;8369;48.030;11.598;2023-05-24T02:59:27;4.97;;;4.23;;
16512;SDS011;8369;48.030;11.598;2023-05-24T03:01:53;5.53;;;4.80;;
16512;SDS011;8369;48.030;11.598;2023-05-24T03:04:19;5.50;;;4.87;;
16512;SDS011;8369;48.030;11.598;2023-05-24T03:06:45;5.93;;;4.77;;
16512;SDS011;8369;48.030;11.598;2023-05-24T03:09:11;6.07;;;5.17;;
16512;SDS011;8369;48.030;11.598;2023-05-24T03:11:37;6.03;;;4.57;;
16512;SDS011;8369;48.030;11.598;2023-05-24T03:14:03;5.67;;;4.63;;
16512;SDS011;8369;48.030;11.598;2023-05-24T03:16:30;5.97;;;4.70;;
16512;SDS011;8369;48.030;11.598;2023-05-24T03:18:57;4.97;;;4.47;;
16512;SDS011;8369;48.030;11.598;2023-05-24T03:21:24;5.10;;;4.57;;
16512;SDS011;8369;48.030;11.598;2023-05-24T03:23:50;6.43;;;5.10;;
16512;SDS011;8369;48.030;11.598;2023-05-24T03:26:25;5.70;;;4.90;;
16512;SDS011;8369;48.030;11.598;2023-05-24T03:28:51;5.83;;;5.27;;
16512;SDS011;8369;48.030;11.598;2023-05-24T03:31:18;6.23;;;4.80;;
16512;SDS011;8369;48.030;11.598;2023-05-24T03:33:45;5.97;;;5.10;;
16512;SDS011;8369;48.030;11.598;2023-05-24T03:36:10;6.23;;;5.17;;
16512;SDS011;8369;48.030;11.598;2023-05-24T03:38:36;6.40;;;5.50;;
16512;SDS011;8369;48.030;11.598;2023-05-24T03:41:02;6.10;;;5.33;;
16512;SDS011;8369;48.030;11.598;2023-05-24T03:43:28;5.50;;;4.50;;
16512;SDS011;8369;48.030;11.598;2023-05-24T03:45:54;6.23;;;5.60;;
16512;SDS011;8369;48.030;11.598;2023-05-24T03:48:20;5.70;;;5.10;;
16512;SDS011;8369;48.030;11.598;2023-05-24T03:50:46;6.43;;;5.00;;
16512;SDS011;8369;48.030;11.598;2023-05-24T03:53:12;5.30;;;4.80;;
16512;SDS011;8369;48.030;11.598;2023-05-24T03:55:38;5.53;;;4.77;;
16512;SDS011;8369;48.030;11.598;2023-05-24T03:58:04;5.47;;;4.87;;
16512;SDS011;8369;48.030;11.598;2023-05-24T04:00:31;6.73;;;5.33;;
16512;SDS011;8369;48.030;11.598;2023-05-24T04:02:57;6.63;;;5.00;;
16512;SDS011;8369;48.030;11.598;2023-05-24T04:05:24;5.43;;;4.63;;
16512;SDS011;8369;48.030;11.598;2023-05-24T04:07:54;5.30;;;4.23;;
16512;SDS011;8369;48.030;11.598;2023-05-24T04:10:20;5.20;;;4.70;;
16512;SDS011;8369;48.030;11.598;2023-05-24T04:12:46;7.63;;;5.77;;
16512;SDS011;8369;48.030;11.598;2023-05-24T04:15:12;6.20;;;5.13;;
16512;SDS011;8369;48.030;11.598;2023-05-24T04:17:42;6.93;;;4.60;;
16512;SDS011;8369;48.030;11.598;2023-05-24T04:20:09;6.47;;;4.97;;
16512;SDS011;8369;48.030;11.598;2023-05-24T04:22:36;5.50;;;4.80;;
16512;SDS011;8369;48.030;11.598;2023-05-24T04:25:02;8.20;;;4.97;;
16512;SDS011;8369;48.030;11.598;2023-05-24T04:27:29;6.17;;;5.13;;
16512;SDS011;8369;48.030;11.598;2023-05-24T04:29:55;6.47;;;5.77;;
16512;SDS011;8369;48.030;11.598;2023-05-24T04:32:21;6.23;;;5.33;;
16512;SDS011;8369;48.030;11.598;2023-05-24T04:34:47;7.17;;;5.83;;
16512;SDS011;8369;48.030;11.598;2023-05-24T04:37:14;6.77;;;5.27;;
16512;SDS011;8369;48.030;11.598;2023-05-24T04:39:43;6.00;;;5.27;;
16512;SDS011;8369;48.030;11.598;2023-05-24T04:42:10;7.43;;;5.37;;
16512;SDS011;8369;48.030;11.598;2023-05-24T04:44:39;6.17;;;4.87;;
16512;SDS011;8369;48.030;11.598;2023-05-24T04:47:05;5.97;;;5.27;;
16512;SDS011;8369;48.030;11.598;2023-05-24T04:49:32;5.77;;;4.80;;
16512;SDS011;8369;48.030;11.598;2023-05-24T04:51:57;5.63;;;4.60;;
16512;SDS011;8369;48.030;11.598;2023-05-24T04:54:23;5.73;;;4.63;;
16512;SDS011;8369;48.030;11.598;2023-05-24T04:56:49;5.73;;;4.70;;
16512;SDS011;8369;48.030;11.598;2023-05-24T04:59:15;5.23;;;4.20;;
16512;SDS011;8369;48.030;11.598;2023-05-24T05:01:41;6.50;;;4.67;;
16512;SDS011;8369;48.030;11.598;2023-05-24T05:04:07;5.47;;;4.40;;
16512;SDS011;8369;48.030;11.598;2023-05-24T05:06:33;6.13;;;4.60;;
16512;SDS011;8369;48.030;11.598;2023-05-24T05:09:04;5.10;;;4.37;;
16512;SDS011;8369;48.030;11.598;2023-05-24T05:11:34;6.07;;;4.30;;
16512;SDS011;8369;48.030;11.598;2023-05-24T05:14:00;5.77;;;4.40;;
16512;SDS011;8369;48.030;11.598;2023-05-24T05:16:26;5.50;;;4.40;;
16512;SDS011;8369;48.030;11.598;2023-05-24T05:18:52;5.93;;;4.47;;
16512;SDS011;8369;48.030;11.598;2023-05-24T05:21:18;4.80;;;4.03;;
16512;SDS011;8369;48.030;11.598;2023-05-24T05:23:44;4.87;;;4.17;;
16512;SDS011;8369;48.030;11.598;2023-05-24T05:26:10;6.07;;;5.00;;
16512;SDS011;8369;48.030;11.598;2023-05-24T05:28:37;6.43;;;4.43;;
16512;SDS011;8369;48.030;11.598;2023-05-24T05:41:35;5.23;;;4.10;;
16512;SDS011;8369;48.030;11.598;2023-05-24T05:44:05;7.77;;;4.73;;
16512;SDS011;8369;48.030;11.598;2023-05-24T05:46:31;7.30;;;4.97;;
16512;SDS011;8369;48.030;11.598;2023-05-24T05:48:57;6.50;;;5.07;;
16512;SDS011;8369;48.030;11.598;2023-05-24T05:51:23;6.50;;;5.27;;
16512;SDS011;8369;48.030;11.598;2023-05-24T05:53:50;6.37;;;5.13;;
16512;SDS011;8369;48.030;11.598;2023-05-24T05:56:16;6.57;;;5.43;;
16512;SDS011;8369;48.030;11.598;2023-05-24T05:58:42;10.30;;;5.23;;
16512;SDS011;8369;48.030;11.598;2023-05-24T06:01:08;6.63;;;5.70;;
16512;SDS011;8369;48.030;11.598;2023-05-24T06:03:34;7.57;;;5.77;;
16512;SDS011;8369;48.030;11.598;2023-05-24T06:06:00;8.90;;;6.40;;
16512;SDS011;8369;48.030;11.598;2023-05-24T06:08:26;6.77;;;5.93;;
16512;SDS011;8369;48.030;11.598;2023-05-24T06:10:55;6.57;;;5.43;;
16512;SDS011;8369;48.030;11.598;2023-05-24T06:13:21;7.70;;;5.93;;
16512;SDS011;8369;48.030;11.598;2023-05-24T06:15:47;8.20;;;6.50;;
16512;SDS011;8369;48.030;11.598;2023-05-24T06:18:14;8.50;;;5.83;;
16512;SDS011;8369;48.030;11.598;2023-05-24T06:20:40;7.17;;;5.80;;
16512;SDS011;8369;48.030;11.598;2023-05-24T06:23:12;7.27;;;6.37;;
16512;SDS011;8369;48.030;11.598;2023-05-24T06:25:38;8.13;;;5.87;;
16512;SDS011;8369;48.030;11.598;2023-05-24T06:28:08;7.50;;;6.03;;
16512;SDS011;8369;48.030;11.598;2023-05-24T06:30:34;6.43;;;5.73;;
16512;SDS011;8369;48.030;11.598;2023-05-24T06:33:00;8.00;;;5.80;;
16512;SDS011;8369;48.030;11.598;2023-05-24T06:35:27;7.20;;;5.93;;
16512;SDS011;8369;48.030;11.598;2023-05-24T06:37:53;6.33;;;5.57;;
16512;SDS011;8369;48.030;11.598;2023-05-24T06:40:22;8.57;;;5.97;;
16512;SDS011;8369;48.030;11.598;2023-05-24T06:42:48;7.27;;;5.93;;
16512;SDS011;8369;48.030;11.598;2023-05-24T06:45:15;5.90;;;5.20;;
16512;SDS011;8369;48.030;11.598;2023-05-24T06:47:41;7.07;;;6.07;;
16512;SDS011;8369;48.030;11.598;2023-05-24T06:50:07;8.47;;;6.47;;
16512;SDS011;8369;48.030;11.598;2023-05-24T06:52:34;8.20;;;7.20;;
16512;SDS011;8369;48.030;11.598;2023-05-24T06:55:01;7.30;;;6.50;;
16512;SDS011;8369;48.030;11.598;2023-05-24T06:57:27;7.07;;;6.10;;
16512;SDS011;8369;48.030;11.598;2023-05-24T06:59:54;8.77;;;6.30;;
16512;SDS011;8369;48.030;11.598;2023-05-24T07:02:21;7.20;;;6.03;;
16512;SDS011;8369;48.030;11.598;2023-05-24T07:04:51;8.87;;;6.80;;
16512;SDS011;8369;48.030;11.598;2023-05-24T07:07:19;7.63;;;6.83;;
16512;SDS011;8369;48.030;11.598;2023-05-24T07:09:46;6.97;;;6.00;;
16512;SDS011;8369;48.030;11.598;2023-05-24T07:12:12;7.63;;;6.40;;
16512;SDS011;8369;48.030;11.598;2023-05-24T07:14:40;8.50;;;6.77;;
16512;SDS011;8369;48.030;11.598;2023-05-24T07:17:09;7.73;;;6.37;;
16512;SDS011;8369;48.030;11.598;2023-05-24T07:19:35;7.13;;;6.40;;
16512;SDS011;8369;48.030;11.598;2023-05-24T07:22:02;8.93;;;7.17;;
16512;SDS011;8369;48.030;11.598;2023-05-24T07:24:28;8.50;;;6.93;;
16512;SDS011;8369;48.030;11.598;2023-05-24T07:26:55;12.00;;;7.33;;
16512;SDS011;8369;48.030;11.598;2023-05-24T07:29:23;8.67;;;7.37;;
16512;SDS011;8369;48.030;11.598;2023-05-24T07:31:50;8.63;;;7.10;;
16512;SDS011;8369;48.030;11.598;2023-05-24T07:34:18;9.63;;;6.67;;
16512;SDS011;8369;48.030;11.598;2023-05-24T07:36:45;7.60;;;6.13;;
16512;SDS011;8369;48.030;11.598;2023-05-24T07:39:15;8.90;;;7.23;;
16512;SDS011;8369;48.030;11.598;2023-05-24T07:41:41;7.53;;;5.93;;
16512;SDS011;8369;48.030;11.598;2023-05-24T07:44:07;7.33;;;6.60;;
16512;SDS011;8369;48.030;11.598;2023-05-24T07:46:34;12.00;;;6.10;;
16512;SDS011;8369;48.030;11.598;2023-05-24T07:49:00;8.17;;;7.07;;
16512;SDS011;8369;48.030;11.598;2023-05-24T07:51:26;7.50;;;6.67;;
16512;SDS011;8369;48.030;11.598;2023-05-24T07:53:52;9.50;;;6.43;;
16512;SDS011;8369;48.030;11.598;2023-05-24T07:56:18;8.90;;;6.83;;
16512;SDS011;8369;48.030;11.598;2023-05-24T07:58:45;9.37;;;7.53;;
16512;SDS011;8369;48.030;11.598;2023-05-24T08:01:13;8.23;;;7.30;;
16512;SDS011;8369;48.030;11.598;2023-05-24T08:03:39;11.33;;;8.10;;
16512;SDS011;8369;48.030;11.598;2023-05-24T08:06:05;9.57;;;7.67;;
16512;SDS011;8369;48.030;11.598;2023-05-24T08:08:31;9.30;;;7.33;;
16512;SDS011;8369;48.030;11.598;2023-05-24T08:10:59;7.33;;;6.33;;
16512;SDS011;8369;48.030;11.598;2023-05-24T08:13:25;7.73;;;6.00;;
16512;SDS011;8369;48.030;11.598;2023-05-24T08:15:51;6.40;;;5.67;;
16512;SDS011;8369;48.030;11.598;2023-05-24T08:18:17;7.40;;;6.00;;
16512;SDS011;8369;48.030;11.598;2023-05-24T08:20:43;8.10;;;6.10;;
16512;SDS011;8369;48.030;11.598;2023-05-24T08:23:10;9.07;;;5.97;;
16512;SDS011;8369;48.030;11.598;2023-05-24T08:25:36;8.43;;;5.80;;
16512;SDS011;8369;48.030;11.598;2023-05-24T08:28:03;7.97;;;5.77;;
16512;SDS011;8369;48.030;11.598;2023-05-24T08:30:29;10.97;;;5.93;;
16512;SDS011;8369;48.030;11.598;2023-05-24T08:32:56;6.33;;;5.17;;
16512;SDS011;8369;48.030;11.598;2023-05-24T08:35:25;6.03;;;5.40;;
16512;SDS011;8369;48.030;11.598;2023-05-24T08:37:51;7.57;;;6.40;;
16512;SDS011;8369;48.030;11.598;2023-05-24T08:40:19;12.60;;;6.00;;
16512;SDS011;8369;48.030;11.598;2023-05-24T08:42:48;7.83;;;6.20;;
16512;SDS011;8369;48.030;11.598;2023-05-24T08:45:16;8.40;;;5.90;;
16512;SDS011;8369;48.030;11.598;2023-05-24T08:47:43;5.83;;;5.17;;
16512;SDS011;8369;48.030;11.598;2023-05-24T08:50:12;10.50;;;5.73;;
16512;SDS011;8369;48.030;11.598;2023-05-24T08:52:38;8.93;;;5.00;;
16512;SDS011;8369;48.030;11.598;2023-05-24T08:55:06;7.00;;;5.70;;
16512;SDS011;8369;48.030;11.598;2023-05-24T08:57:34;7.13;;;5.27;;
16512;SDS011;8369;48.030;11.598;2023-05-24T09:00:04;5.53;;;4.53;;
16512;SDS011;8369;48.030;11.598;2023-05-24T09:02:33;6.47;;;4.93;;
16512;SDS011;8369;48.030;11.598;2023-05-24T09:05:00;8.67;;;5.47;;
16512;SDS011;8369;48.030;11.598;2023-05-24T09:07:27;6.97;;;5.43;;
16512;SDS011;8369;48.030;11.598;2023-05-24T09:09:58;6.93;;;5.50;;
16512;SDS011;8369;48.030;11.598;2023-05-24T09:12:29;8.17;;;5.90;;
16512;SDS011;8369;48.030;11.598;2023-05-24T09:15:01;6.87;;;5.60;;
16512;SDS011;8369;48.030;11.598;2023-05-24T09:17:29;7.07;;;6.00;;
16512;SDS011;8369;48.030;11.598;2023-05-24T09:19:56;6.73;;;5.87;;
16512;SDS011;8369;48.030;11.598;2023-05-24T09:22:24;8.70;;;6.40;;
16512;SDS011;8369;48.030;11.598;2023-05-24T09:24:56;7.90;;;7.10;;
16512;SDS011;8369;48.030;11.598;2023-05-24T09:27:24;8.33;;;7.00;;
16512;SDS011;8369;48.030;11.598;2023-05-24T09:29:50;9.73;;;6.73;;
16512;SDS011;8369;48.030;11.598;2023-05-24T09:32:19;9.17;;;6.90;;
16512;SDS011;8369;48.030;11.598;2023-05-24T09:34:48;11.27;;;7.80;;
16512;SDS011;8369;48.030;11.598;2023-05-24T09:37:21;9.00;;;7.73;;
16512;SDS011;8369;48.030;11.598;2023-05-24T09:39:49;10.50;;;7.00;;
16512;SDS011;8369;48.030;11.598;2023-05-24T09:42:16;10.23;;;7.27;;
16512;SDS011;8369;48.030;11.598;2023-05-24T09:44:46;10.33;;;6.53;;
16512;SDS011;8369;48.030;11.598;2023-05-24T09:47:13;7.90;;;7.10;;
16512;SDS011;8369;48.030;11.598;2023-05-24T09:49:40;7.27;;;6.37;;
16512;SDS011;8369;48.030;11.598;2023-05-24T09:52:06;7.33;;;6.03;;
16512;SDS011;8369;48.030;11.598;2023-05-24T09:54:32;6.90;;;6.20;;
16512;SDS011;8369;48.030;11.598;2023-05-24T09:57:01;8.43;;;6.67;;
16512;SDS011;8369;48.030;11.598;2023-05-24T09:59:32;7.77;;;6.33;;
16512;SDS011;8369;48.030;11.598;2023-05-24T10:02:08;7.57;;;6.03;;
16512;SDS011;8369;48.030;11.598;2023-05-24T10:04:37;6.57;;;5.87;;
16512;SDS011;8369;48.030;11.598;2023-05-24T10:07:05;8.97;;;6.27;;
16512;SDS011;8369;48.030;11.598;2023-05-24T10:09:31;8.60;;;6.80;;
16512;SDS011;8369;48.030;11.598;2023-05-24T10:12:02;7.23;;;5.20;;
16512;SDS011;8369;48.030;11.598;2023-05-24T10:14:33;6.33;;;5.67;;
16512;SDS011;8369;48.030;11.598;2023-05-24T10:17:03;6.53;;;5.70;;
16512;SDS011;8369;48.030;11.598;2023-05-24T10:19:31;7.53;;;6.10;;
16512;SDS011;8369;48.030;11.598;2023-05-24T10:22:02;8.23;;;6.10;;
16512;SDS011;8369;48.030;11.598;2023-05-24T10:24:32;12.13;;;7.13;;
16512;SDS011;8369;48.030;11.598;2023-05-24T10:27:04;8.30;;;6.57;;
16512;SDS011;8369;48.030;11.598;2023-05-24T10:32:09;9.23;;;6.90;;
16512;SDS011;8369;48.030;11.598;2023-05-24T10:34:38;7.60;;;6.80;;
16512;SDS011;8369;48.030;11.598;2023-05-24T10:37:05;9.37;;;6.63;;
16512;SDS011;8369;48.030;11.598;2023-05-24T10:39:32;10.40;;;7.13;;
16512;SDS011;8369;48.030;11.598;2023-05-24T10:42:03;10.77;;;7.37;;
16512;SDS011;8369;48.030;11.598;2023-05-24T10:44:30;8.90;;;7.03;;
16512;SDS011;8369;48.030;11.598;2023-05-24T10:47:15;9.83;;;7.20;;
16512;SDS011;8369;48.030;11.598;2023-05-24T10:49:49;10.53;;;7.27;;
16512;SDS011;8369;48.030;11.598;2023-05-24T10:52:17;9.90;;;7.17;;
16512;SDS011;8369;48.030;11.598;2023-05-24T10:57:32;9.47;;;7.47;;
16512;SDS011;8369;48.030;11.598;2023-05-24T11:02:58;13.23;;;8.30;;
16512;SDS011;8369;48.030;11.598;2023-05-24T11:08:28;11.23;;;7.63;;
16512;SDS011;8369;48.030;11.598;2023-05-24T11:11:09;10.10;;;7.60;;
16512;SDS011;8369;48.030;11.598;2023-05-24T11:13:36;12.47;;;7.57;;
16512;SDS011;8369;48.030;11.598;2023-05-24T11:16:04;9.37;;;7.77;;
16512;SDS011;8369;48.030;11.598;2023-05-24T11:18:32;10.17;;;7.50;;
16512;SDS011;8369;48.030;11.598;2023-05-24T11:21:04;11.27;;;8.00;;
16512;SDS011;8369;48.030;11.598;2023-05-24T11:23:31;14.57;;;8.13;;
16512;SDS011;8369;48.030;11.598;2023-05-24T11:25:57;10.33;;;7.67;;
16512;SDS011;8369;48.030;11.598;2023-05-24T11:28:23;11.00;;;7.23;;
16512;SDS011;8369;48.030;11.598;2023-05-24T11:30:49;10.80;;;7.77;;
16512;SDS011;8369;48.030;11.598;2023-05-24T11:33:16;10.53;;;7.60;;
16512;SDS011;8369;48.030;11.598;2023-05-24T11:35:44;8.87;;;6.83;;
16512;SDS011;8369;48.030;11.598;2023-05-24T11:38:11;10.93;;;7.60;;
16512;SDS011;8369;48.030;11.598;2023-05-24T11:40:38;11.37;;;7.73;;
16512;SDS011;8369;48.030;11.598;2023-05-24T11:43:18;9.00;;;7.10;;
16512;SDS011;8369;48.030;11.598;2023-05-24T11:45:45;9.27;;;7.00;;
16512;SDS011;8369;48.030;11.598;2023-05-24T11:48:15;11.50;;;7.63;;
16512;SDS011;8369;48.030;11.598;2023-05-24T11:50:43;12.60;;;7.40;;
16512;SDS011;8369;48.030;11.598;2023-05-24T11:53:14;13.90;;;7.87;;
16512;SDS011;8369;48.030;11.598;2023-05-24T11:55:41;13.73;;;7.57;;
16512;SDS011;8369;48.030;11.598;2023-05-24T11:58:13;9.77;;;7.97;;
16512;SDS011;8369;48.030;11.598;2023-05-24T12:00:42;12.50;;;7.50;;
16512;SDS011;8369;48.030;11.598;2023-05-24T12:03:08;13.33;;;7.80;;
16512;SDS011;8369;48.030;11.598;2023-05-24T12:05:37;10.50;;;7.80;;
16512;SDS011;8369;48.030;11.598;2023-05-24T12:08:04;12.07;;;7.10;;
16512;SDS011;8369;48.030;11.598;2023-05-24T12:10:34;10.37;;;7.00;;
16512;SDS011;8369;48.030;11.598;2023-05-24T12:13:02;12.77;;;8.10;;
16512;SDS011;8369;48.030;11.598;2023-05-24T12:15:29;10.93;;;7.83;;
16512;SDS011;8369;48.030;11.598;2023-05-24T12:17:56;10.27;;;7.50;;
16512;SDS011;8369;48.030;11.598;2023-05-24T12:20:22;8.73;;;7.63;;
16512;SDS011;8369;48.030;11.598;2023-05-24T12:22:53;9.30;;;7.07;;
16512;SDS011;8369;48.030;11.598;2023-05-24T12:25:21;12.23;;;7.30;;
16512;SDS011;8369;48.030;11.598;2023-05-24T12:27:54;10.47;;;6.97;;
16512;SDS011;8369;48.030;11.598;2023-05-24T12:30:22;10.37;;;7.00;;
16512;SDS011;8369;48.030;11.598;2023-05-24T12:32:49;11.57;;;6.90;;
16512;SDS011;8369;48.030;11.598;2023-05-24T12:35:17;9.10;;;7.00;;
16512;SDS011;8369;48.030;11.598;2023-05-24T12:37:45;12.60;;;6.83;;
16512;SDS011;8369;48.030;11.598;2023-05-24T12:40:19;14.40;;;6.70;;
16512;SDS011;8369;48.030;11.598;2023-05-24T12:42:49;9.33;;;6.87;;
16512;SDS011;8369;48.030;11.598;2023-05-24T12:45:16;12.77;;;6.70;;
16512;SDS011;8369;48.030;11.598;2023-05-24T12:47:52;7.17;;;5.87;;
16512;SDS011;8369;48.030;11.598;2023-05-24T12:50:29;8.83;;;6.20;;
16512;SDS011;8369;48.030;11.598;2023-05-24T12:52:56;10.13;;;6.00;;
16512;SDS011;8369;48.030;11.598;2023-05-24T12:55:23;12.37;;;6.60;;
16512;SDS011;8369;48.030;11.598;2023-05-24T12:57:51;8.13;;;6.33;;
16512;SDS011;8369;48.030;11.598;2023-05-24T13:00:22;13.30;;;6.83;;
16512;SDS011;8369;48.030;11.598;2023-05-24T13:02:56;10.00;;;6.60;;
16512;SDS011;8369;48.030;11.598;2023-05-24T13:05:25;9.97;;;6.87;;
16512;SDS011;8369;48.030;11.598;2023-05-24T13:07:53;9.30;;;6.80;;
16512;SDS011;8369;48.030;11.598;2023-05-24T13:10:23;9.33;;;6.20;;
16512;SDS011;8369;48.030;11.598;2023-05-24T13:12:49;9.00;;;5.87;;
16512;SDS011;8369;48.030;11.598;2023-05-24T13:15:16;8.00;;;6.30;;
16512;SDS011;8369;48.030;11.598;2023-05-24T13:17:43;10.10;;;6.60;;
16512;SDS011;8369;48.030;11.598;2023-05-24T13:20:11;11.33;;;5.53;;
16512;SDS011;8369;48.030;11.598;2023-05-24T13:22:38;9.10;;;6.13;;
16512;SDS011;8369;48.030;11.598;2023-05-24T13:25:05;6.93;;;5.80;;
16512;SDS011;8369;48.030;11.598;2023-05-24T13:27:31;10.80;;;5.80;;
16512;SDS011;8369;48.030;11.598;2023-05-24T13:29:58;8.53;;;5.50;;
16512;SDS011;8369;48.030;11.598;2023-05-24T13:32:25;11.93;;;6.60;;
16512;SDS011;8369;48.030;11.598;2023-05-24T13:34:51;8.73;;;6.30;;
16512;SDS011;8369;48.030;11.598;2023-05-24T13:37:17;10.90;;;6.17;;
16512;SDS011;8369;48.030;11.598;2023-05-24T13:39:43;11.23;;;5.93;;
16512;SDS011;8369;48.030;11.598;2023-05-24T13:42:09;9.13;;;6.00;;
16512;SDS011;8369;48.030;11.598;2023-05-24T13:44:36;10.03;;;6.13;;
16512;SDS011;8369;48.030;11.598;2023-05-24T13:47:02;9.87;;;5.93;;
16512;SDS011;8369;48.030;11.598;2023-05-24T13:49:29;7.97;;;5.57;;
16512;SDS011;8369;48.030;11.598;2023-05-24T13:51:55;9.60;;;6.13;;
16512;SDS011;8369;48.030;11.598;2023-05-24T13:54:21;10.50;;;5.90;;
16512;SDS011;8369;48.030;11.598;2023-05-24T13:56:47;13.63;;;6.13;;
16512;SDS011;8369;48.030;11.598;2023-05-24T13:59:14;9.77;;;5.63;;
16512;SDS011;8369;48.030;11.598;2023-05-24T14:01:40;10.50;;;5.70;;
16512;SDS011;8369;48.030;11.598;2023-05-24T14:04:07;7.87;;;5.30;;
16512;SDS011;8369;48.030;11.598;2023-05-24T14:06:33;10.27;;;5.60;;
16512;SDS011;8369;48.030;11.598;2023-05-24T14:09:02;10.10;;;5.10;;
16512;SDS011;8369;48.030;11.598;2023-05-24T14:11:31;7.27;;;5.47;;
16512;SDS011;8369;48.030;11.598;2023-05-24T14:13:58;8.13;;;4.93;;
16512;SDS011;8369;48.030;11.598;2023-05-24T14:16:26;7.90;;;5.50;;
16512;SDS011;8369;48.030;11.598;2023-05-24T14:18:52;8.23;;;5.60;;
16512;SDS011;8369;48.030;11.598;2023-05-24T14:21:18;8.23;;;5.73;;
16512;SDS011;8369;48.030;11.598;2023-05-24T14:23:45;11.47;;;6.00;;
16512;SDS011;8369;48.030;11.598;2023-05-24T14:26:12;10.67;;;5.30;;
16512;SDS011;8369;48.030;11.598;2023-05-24T14:28:38;14.90;;;5.67;;
16512;SDS011;8369;48.030;11.598;2023-05-24T14:31:04;9.03;;;5.47;;
16512;SDS011;8369;48.030;11.598;2023-05-24T14:33:30;7.23;;;5.03;;
16512;SDS011;8369;48.030;11.598;2023-05-24T14:35:56;15.07;;;5.73;;
16512;SDS011;8369;48.030;11.598;2023-05-24T14:38:22;11.27;;;5.10;;
16512;SDS011;8369;48.030;11.598;2023-05-24T14:40:49;10.50;;;5.37;;
16512;SDS011;8369;48.030;11.598;2023-05-24T14:43:15;11.13;;;5.07;;
16512;SDS011;8369;48.030;11.598;2023-05-24T14:45:41;9.60;;;5.27;;
16512;SDS011;8369;48.030;11.598;2023-05-24T14:48:08;9.93;;;5.80;;
16512;SDS011;8369;48.030;11.598;2023-05-24T14:50:35;9.17;;;5.57;;
16512;SDS011;8369;48.030;11.598;2023-05-24T14:53:02;10.87;;;5.57;;
16512;SDS011;8369;48.030;11.598;2023-05-24T14:55:37;12.00;;;5.33;;
16512;SDS011;8369;48.030;11.598;2023-05-24T14:58:05;7.27;;;5.03;;
16512;SDS011;8369;48.030;11.598;2023-05-24T15:00:35;7.83;;;5.27;;
16512;SDS011;8369;48.030;11.598;2023-05-24T15:03:05;9.90;;;5.63;;
16512;SDS011;8369;48.030;11.598;2023-05-24T15:05:32;7.40;;;5.07;;
16512;SDS011;8369;48.030;11.598;2023-05-24T15:07:59;10.73;;;5.53;;
16512;SDS011;8369;48.030;11.598;2023-05-24T15:10:25;10.97;;;5.40;;
16512;SDS011;8369;48.030;11.598;2023-05-24T15:12:51;10.00;;;4.83;;